Airfield :







YOU CAN JOIN US ON...

 
LOGIN :

Register | Disclaimer

   EN    FR    IT 

 









Legend :    VFR   Marginal VFR   IFR   Intensive IFR   Very Intensive IFR
Visi :
Ceiling :
>= 8 km
>= 3000ft
5 to 8 km
1000 to 3000 ft
1500m to 5 km
500 to 1000 ft
800 to 1500m
200 to 500 ft
< 800m
< 200 ft
Symbols :   Thunderstorms  Fog  Heavy snow  Heavy precipitations  Wind > 20 kt







- Airport Elevation : 71 ft
- IATA code : YBC


CYBC - Baie Comeau

CURRENT METAR :
  • 201900Z AUTO 23013G20KT 9SM CLR 25/17 A2956 RMK SLP011 DENSITY ALT 1600FT

EXPIRED METARs :
  • 201800Z AUTO 24018G25KT 9SM CLR 23/17 A2958 RMK SLP018 DENSITY ALT 1400FT
  • 201700Z AUTO 24016KT 9SM CLR 23/17 A2958 RMK SLP018 DENSITY ALT 1400FT

TAF TAF CYBC
Valid from the 20 at 14:00 until the 21 at 02:00 UTC


201343Z 2014/2102 23010KT 5SM BR OVC002
TEMPO 2014/2015 P6SM NSW SCT002 BKN025
FM201500 23012KT P6SM SCT025
TEMPO 2015/2019 BKN025
FM201900 27012KT P6SM -SHRA BKN040
PROB30 2019/2101 2SM +TSRA BR BKN020 BKN040CB
FM210100 24005KT P6SM FEW002 BKN040
PROB30 2101/2102 1/2SM FG VV002 RMK FCST BASED ON AUTO OBS. NXT FCST BY 202000Z
CZUL FIR / North America



MET'MAP, your aeronautical weather chart ! - Copyright ORBIFLY December 2007 - Disclaimer

ORBIFLY MET'MAP TEAM :

Programming & Development : Alexandra Zaïnal
Concept & Development : Baudouin d'Aumeries
Co-Development & Prog : Marc-Olivier Méhu
Technical & hardware support : Manuel Goepfert

Contact : metmap@orbifly.com




SOURCES & CREDITS :

   NOAA